Aérodrome :
LOGIN :

S'inscrire | Disclaimer

   EN    FR    IT 

 










Légende :    VFR   VFR Marginal   IFR   IFR Intensif   IFR Très Intensif
Visi : 
Plafond : 
>= 8 km
>= 3000ft
5 à 8 km
1000 à 3000 ft
1500m à 5 km
500 à 1000 ft
800 à 1500m
200 à 500 ft
< 800m
< 200 ft
Symboles :   Orages  Brouillard  Fortes neiges  Fortes précipitations  Vent > 20 kt
SIGMETs :   Divers  Orages  Givrage  Turbulence  Onde Orograph.  Cendres Volcan.







- Altitude de l'aérodrome : 458 ft
- Voir les cartes d'approche


LFSI - St-Dizier

DERNIER METAR :
  • 281200Z AUTO 20009KT 170V230 9999 BKN017/// BKN026/// BKN032/// ///TCU 20/15 Q1000

METARs EXPIRÉS :
  • 281130Z AUTO 21009KT 170V230 9999 SCT015/// BKN021/// BKN031/// ///TCU 20/16 Q1000
  • 281100Z AUTO 22008KT 180V250 9999 BKN014 OVC100 19/16 Q1000
  • 281030Z AUTO 21010KT 180V240 9999 BKN012/// BKN020/// OVC038/// ///TCU 18/16 Q1000
  • 281000Z AUTO 20007KT 9999 BKN009 BKN014 BKN022 18/16 Q1000
  • 280930Z AUTO 21008KT 9999 BKN007 BKN011 OVC032 18/16 Q1000

TAF TAF LFSI
Valide du 28 à 09h jusqu'au 29 à 09h UTC


280800Z 2809/2909 21010KT 6000 BKN010 OVC050
TEMPO 2809/2821 3000 -SHRA BKN040TCU
PROB30
TEMPO 2813/2821 2000 -TSRA BKN040CB
Pas de NOTAMs connus pour ce terrain.



MET'MAP, la Météo Aéronautique d'un coup d'oeil ! - Copyright ORBIFLY Décembre 2007 - Disclaimer

ORBIFLY MET'MAP TEAM :

Programmation & Développement : Alexandra Zaïnal
Conception & Développement : Baudouin d'Aumeries
Co-Programmation & Développement : Marc-Olivier Méhu
Soutien technique & logistique : Manuel Goepfert

Contact : metmap@orbifly.com




SOURCES & CREDITS :

   NOAA